EKSN/CNL METAR and TAF weather

Enter ICAO airport designator
Station Type Date Time Source
EKSN METAR 2018/07/20 11:50 UTC NOAA

EKSN 201150Z 27009KT CAVOK 21/12 Q1013


Station Type Date Time Source
EKSN Decoded METAR 2018/07/20 11:50 UTC NOAA

Sindal Flyveplads, Denmark (EKSN) 57-30N 010-13E 28M
Jul 20, 2018 - 07:50 AM EDT / 2018.07.20 1150 UTC
Wind: from the W (270 degrees) at 10 MPH (9 KT):0
Visibility: greater than 7 mile(s):0
Temperature: 69 F (21 C)
Dew Point: 53 F (12 C)
Relative Humidity: 56%
Pressure (altimeter): 29.91 in. Hg (1013 hPa)
ob: EKSN 201150Z 27009KT CAVOK 21/12 Q1013
cycle: 12

Station Type Date Time Source
EKSN TAF UTC NOAA

Error!


Example: see airport list